createdAt,value
2022-12-25T00:04:07.354Z,92587.11
2022-12-25T00:12:30.710Z,92581.42
2022-12-25T00:21:02.953Z,92563.80
2022-12-25T00:29:26.061Z,92550.70
2022-12-25T00:37:49.014Z,92554.11
2022-12-25T00:46:14.713Z,92552.44
2022-12-25T00:54:40.036Z,92539.47
2022-12-25T01:03:03.194Z,92549.13
2022-12-25T01:11:28.473Z,92544.24
2022-12-25T01:19:51.630Z,92553.05
2022-12-25T01:28:16.623Z,92580.91
2022-12-25T01:36:40.577Z,92582.27
2022-12-25T01:45:44.689Z,92585.95
2022-12-25T01:54:12.857Z,92590.01
2022-12-25T02:02:37.647Z,92580.91
2022-12-25T02:11:00.679Z,92586.35
2022-12-25T02:19:35.890Z,92597.71
2022-12-25T02:28:18.212Z,92574.02
2022-12-25T02:36:49.185Z,92551.48
2022-12-25T02:45:33.329Z,92559.52
2022-12-25T02:54:18.551Z,92561.15
2022-12-25T03:03:02.644Z,92565.15
2022-12-25T03:11:32.732Z,92592.63
2022-12-25T03:20:14.099Z,92579.70
2022-12-25T03:28:36.958Z,92557.70
2022-12-25T03:37:43.720Z,92557.06
2022-12-25T03:46:31.452Z,92528.13
2022-12-25T03:55:18.094Z,92515.94
2022-12-25T04:04:00.467Z,92536.42
2022-12-25T04:12:42.583Z,92534.33
2022-12-25T04:21:24.264Z,92542.90
2022-12-25T04:30:05.842Z,92532.69
2022-12-25T04:38:28.700Z,92524.01
2022-12-25T04:46:52.075Z,92538.52
2022-12-25T04:55:15.089Z,92547.48
2022-12-25T05:03:38.079Z,92551.02
2022-12-25T05:12:00.901Z,92552.55
2022-12-25T05:20:23.769Z,92534.13
2022-12-25T05:28:47.873Z,92534.91
2022-12-25T05:37:10.754Z,92542.27
2022-12-25T05:45:33.600Z,92541.95
2022-12-25T05:53:56.392Z,92571.88
2022-12-25T06:02:19.486Z,92594.79
2022-12-25T06:10:44.062Z,92589.83
2022-12-25T06:19:08.446Z,92600.39
2022-12-25T06:27:31.286Z,92584.61
2022-12-25T06:35:54.334Z,92587.00
2022-12-25T06:44:17.840Z,92608.80
2022-12-25T06:52:41.663Z,92645.46
2022-12-25T07:01:15.317Z,92664.65
2022-12-25T07:09:39.292Z,92692.86
2022-12-25T07:18:02.457Z,92696.08
2022-12-25T07:26:25.985Z,92695.65
2022-12-25T07:34:50.226Z,92685.77
2022-12-25T07:43:13.856Z,92682.73
2022-12-25T07:51:36.793Z,92688.01
2022-12-25T07:59:59.649Z,92695.98
2022-12-25T08:08:22.538Z,92710.98
2022-12-25T08:16:47.217Z,92722.73
2022-12-25T08:25:10.244Z,92744.22
2022-12-25T08:33:33.021Z,92782.51
2022-12-25T08:41:55.806Z,92845.05
2022-12-25T08:50:18.611Z,92900.27
2022-12-25T08:58:42.072Z,92962.58
2022-12-25T09:07:05.391Z,92986.41
2022-12-25T09:15:28.299Z,93017.63
2022-12-25T09:23:51.357Z,93056.89
2022-12-25T09:32:14.260Z,93106.98
2022-12-25T09:40:37.279Z,93179.27
2022-12-25T09:49:12.449Z,93230.08
2022-12-25T09:57:35.418Z,93253.13
2022-12-25T10:06:21.093Z,93274.17
2022-12-25T10:15:04.471Z,93308.02
2022-12-25T10:23:31.157Z,93340.39
2022-12-25T10:31:55.696Z,93374.97
2022-12-25T10:40:24.765Z,93409.80
2022-12-25T10:48:51.850Z,93447.13
2022-12-25T10:57:17.487Z,93469.15
2022-12-25T11:05:41.269Z,93489.86
2022-12-25T11:14:04.983Z,93478.73
2022-12-25T11:22:31.183Z,93439.71
2022-12-25T11:31:08.513Z,93438.61
2022-12-25T11:39:36.257Z,93443.85
2022-12-25T11:48:06.124Z,93472.79
2022-12-25T11:56:31.192Z,93500.89
2022-12-25T12:05:18.900Z,93521.94
2022-12-25T12:13:54.126Z,93548.02
2022-12-25T12:22:21.412Z,93549.33
2022-12-25T12:30:44.429Z,93545.34
2022-12-25T12:39:07.290Z,93568.26
2022-12-25T12:47:38.578Z,93590.29
2022-12-25T12:56:18.233Z,93582.42
2022-12-25T13:04:59.551Z,93582.89
2022-12-25T13:13:33.857Z,93584.32
2022-12-25T13:22:05.541Z,93595.48
2022-12-25T13:30:28.564Z,93568.10
2022-12-25T13:38:54.562Z,93541.19
2022-12-25T13:47:29.841Z,93529.98
2022-12-25T13:55:55.223Z,93504.33
2022-12-25T14:04:21.045Z,93483.65
2022-12-25T14:12:44.166Z,93474.07
2022-12-25T14:21:25.761Z,93459.11
2022-12-25T14:29:52.060Z,93454.64
2022-12-25T14:38:34.114Z,93437.52
2022-12-25T14:47:17.422Z,93395.17
2022-12-25T14:55:40.323Z,93368.71
2022-12-25T15:04:12.300Z,93358.98
2022-12-25T15:12:35.130Z,93365.80
2022-12-25T15:20:58.928Z,93342.70
2022-12-25T15:29:44.470Z,93295.19
2022-12-25T15:38:05.614Z,93279.48
2022-12-25T15:46:28.493Z,93292.45
2022-12-25T15:54:51.743Z,93256.02
2022-12-25T16:03:14.651Z,93218.63
2022-12-25T16:11:37.558Z,93227.74
2022-12-25T16:20:00.620Z,93253.61
2022-12-25T16:28:23.532Z,93285.83
2022-12-25T16:36:46.443Z,93293.84
2022-12-25T16:45:10.524Z,93293.58
2022-12-25T16:53:33.859Z,93291.98
2022-12-25T17:01:56.956Z,93286.47
2022-12-25T17:10:21.395Z,93260.71
2022-12-25T17:18:45.353Z,93249.39
2022-12-25T17:27:09.427Z,93211.16
2022-12-25T17:35:35.587Z,93177.61
2022-12-25T17:43:58.881Z,93162.40
2022-12-25T17:52:21.719Z,93172.31
2022-12-25T18:00:44.485Z,93178.77
2022-12-25T18:09:07.611Z,93176.61
2022-12-25T18:17:30.488Z,93170.88
2022-12-25T18:25:53.428Z,93138.10
2022-12-25T18:34:16.959Z,93095.77
2022-12-25T18:42:41.778Z,93116.89
2022-12-25T18:51:11.144Z,93126.05
2022-12-25T18:59:33.922Z,93119.27
2022-12-25T19:07:57.115Z,93110.04
2022-12-25T19:16:19.936Z,93087.38
2022-12-25T19:24:42.948Z,93076.55
2022-12-25T19:33:07.390Z,93065.89
2022-12-25T19:41:31.991Z,93046.60
2022-12-25T19:49:59.596Z,93038.85
2022-12-25T19:58:25.157Z,93022.02
2022-12-25T20:06:48.104Z,92991.75
2022-12-25T20:15:11.376Z,92974.17
2022-12-25T20:23:34.309Z,92959.59
2022-12-25T20:31:57.109Z,92980.72
2022-12-25T20:40:20.136Z,92994.54
2022-12-25T20:48:43.027Z,92991.41
2022-12-25T20:57:06.254Z,92957.77
2022-12-25T21:05:29.151Z,92902.66
2022-12-25T21:13:53.319Z,92861.55
2022-12-25T21:22:16.142Z,92821.27
2022-12-25T21:30:39.052Z,92783.68
2022-12-25T21:39:07.184Z,92756.73
2022-12-25T21:48:00.419Z,92738.30
2022-12-25T21:56:14.101Z,92724.91
2022-12-25T22:04:38.061Z,92708.27
2022-12-25T22:13:20.266Z,92687.24
2022-12-25T22:21:43.317Z,92670.91
2022-12-25T22:30:09.235Z,92674.29
2022-12-25T22:38:33.560Z,92687.15
2022-12-25T22:46:57.663Z,92703.13
2022-12-25T22:55:20.656Z,92715.33
2022-12-25T23:03:43.553Z,92710.97
2022-12-25T23:12:06.565Z,92694.01
2022-12-25T23:20:48.169Z,92681.39
2022-12-25T23:29:30.191Z,92687.88
2022-12-25T23:37:54.450Z,92688.35
2022-12-25T23:46:17.519Z,92677.59
2022-12-25T23:54:40.331Z,92675.85
